Time;durP1;ratioP1;P1;durP2;ratioP2;P2;SDS_P1;SDS_P2;PMS_P1;PMS_P2;Temp;Humidity;BMP_temperature;BMP_pressure;BME280_temperature;BME280_humidity;BME280_pressure;Samples;Min_cycle;Max_cycle;Signal;HPM_P1;HPM_P2
2022/07/30 00:01:25;;;;;;;2.75;2.47;;;17.40;99.90;;;;;;5021140;28;20238;-80
2022/07/30 00:03:51;;;;;;;2.25;2.05;;;17.30;99.90;;;;;;5019542;28;20053;-80
2022/07/30 00:06:16;;;;;;;1.70;1.60;;;17.30;99.90;;;;;;5038758;28;20562;-80
2022/07/30 00:08:42;;;;;;;2.55;1.67;;;17.20;99.90;;;;;;5020669;28;20558;-80
2022/07/30 00:11:08;;;;;;;2.22;2.03;;;17.20;99.90;;;;;;5038670;28;20479;-80
2022/07/30 00:13:33;;;;;;;2.75;1.98;;;17.20;99.90;;;;;;5037884;28;20530;-80
2022/07/30 00:15:59;;;;;;;3.92;1.98;;;17.10;99.90;;;;;;5038752;28;20728;-80
2022/07/30 00:18:25;;;;;;;3.03;2.45;;;17.20;99.90;;;;;;5021416;28;20329;-80
2022/07/30 00:20:50;;;;;;;3.28;2.97;;;17.20;99.90;;;;;;5019196;28;20087;-80
2022/07/30 00:23:16;;;;;;;2.78;2.58;;;17.10;99.90;;;;;;5037825;28;20045;-80
2022/07/30 00:25:43;;;;;;;3.85;2.47;;;17.10;99.90;;;;;;5038385;28;20037;-80
2022/07/30 00:28:08;;;;;;;4.72;2.92;;;17.10;99.90;;;;;;5020276;28;20064;-80
2022/07/30 00:30:34;;;;;;;2.67;2.17;;;17.10;99.90;;;;;;5038830;28;20040;-80
2022/07/30 00:33:00;;;;;;;4.55;2.08;;;17.00;99.90;;;;;;5037888;28;20041;-80
2022/07/30 00:35:25;;;;;;;2.50;2.15;;;17.00;99.90;;;;;;5037188;28;20041;-80
2022/07/30 00:37:51;;;;;;;5.10;2.30;;;17.00;99.90;;;;;;5038478;28;20045;-80
2022/07/30 00:40:17;;;;;;;2.97;1.83;;;17.00;99.90;;;;;;5038697;28;20187;-80
2022/07/30 00:42:46;;;;;;;2.75;1.95;;;17.00;99.90;;;;;;5037787;28;20515;-80
2022/07/30 00:45:14;;;;;;;3.65;2.20;;;16.90;99.90;;;;;;5037939;28;20079;-80
2022/07/30 00:47:40;;;;;;;1.90;1.80;;;16.90;99.90;;;;;;5037912;28;20041;-81
2022/07/30 00:50:08;;;;;;;2.53;2.33;;;16.90;99.90;;;;;;5037099;28;20702;-80
2022/07/30 00:52:37;;;;;;;2.90;1.60;;;16.90;99.90;;;;;;5038146;28;20132;-81
2022/07/30 00:55:04;;;;;;;2.17;1.80;;;16.80;99.90;;;;;;5038673;28;20466;-80
2022/07/30 00:57:30;;;;;;;1.63;1.50;;;16.80;99.90;;;;;;5020589;28;20037;-80
2022/07/30 00:59:56;;;;;;;2.47;2.28;;;16.80;99.90;;;;;;5041818;28;20226;-80
2022/07/30 01:02:22;;;;;;;2.40;2.08;;;16.70;99.90;;;;;;5041728;28;20068;-80
2022/07/30 01:04:47;;;;;;;2.53;1.90;;;16.70;99.90;;;;;;5040838;28;20040;-80
2022/07/30 01:07:13;;;;;;;5.53;3.28;;;16.70;99.90;;;;;;5041790;28;20203;-80
2022/07/30 01:09:39;;;;;;;3.53;1.77;;;16.70;99.90;;;;;;5041446;28;20099;-80
2022/07/30 01:12:06;;;;;;;3.17;2.38;;;16.70;99.90;;;;;;5040716;28;20085;-80
2022/07/30 01:14:36;;;;;;;4.25;2.63;;;16.70;99.90;;;;;;5042012;28;20107;-80
2022/07/30 01:17:02;;;;;;;3.20;2.22;;;16.70;99.90;;;;;;5041801;28;20330;-80
2022/07/30 01:19:52;;;;;;;2.92;2.30;;;16.70;99.90;;;;;;5023387;28;20048;-80
2022/07/30 01:22:29;;;;;;;2.17;1.83;;;16.70;99.90;;;;;;5023076;28;20040;-80
2022/07/30 01:25:10;;;;;;;2.42;1.80;;;16.70;99.90;;;;;;5041653;28;20390;-80
2022/07/30 01:27:39;;;;;;;2.97;2.20;;;16.60;99.90;;;;;;5040857;28;20090;-80
2022/07/30 01:30:07;;;;;;;3.03;2.80;;;16.70;99.90;;;;;;5040816;28;20357;-80
2022/07/30 01:32:35;;;;;;;2.42;2.17;;;16.70;99.90;;;;;;5041206;28;20066;-77
2022/07/30 01:35:03;;;;;;;4.53;2.45;;;16.60;99.90;;;;;;5022557;28;20617;-80
2022/07/30 01:37:31;;;;;;;6.88;2.42;;;16.60;99.90;;;;;;5041778;28;20049;-80
2022/07/30 01:39:57;;;;;;;3.33;1.70;;;16.50;99.90;;;;;;5023180;28;20045;-80
2022/07/30 01:42:25;;;;;;;3.85;3.20;;;16.60;99.90;;;;;;5041353;28;20348;-80
2022/07/30 01:44:52;;;;;;;2.85;2.22;;;16.60;99.90;;;;;;5041041;28;20037;-80
2022/07/30 01:47:19;;;;;;;4.40;2.63;;;16.60;99.90;;;;;;5039853;28;20479;-80
2022/07/30 01:49:46;;;;;;;7.75;3.15;;;16.60;99.90;;;;;;5022208;28;20051;-80
2022/07/30 01:52:13;;;;;;;3.80;1.98;;;16.50;99.90;;;;;;5040685;28;20062;-80
2022/07/30 01:54:39;;;;;;;3.85;1.90;;;16.50;99.90;;;;;;5022705;28;20120;-80
2022/07/30 01:57:07;;;;;;;3.40;2.20;;;16.30;99.90;;;;;;5041570;28;20048;-80
2022/07/30 01:59:34;;;;;;;2.53;1.70;;;16.30;99.90;;;;;;5040874;28;20476;-80
2022/07/30 02:02:00;;;;;;;3.95;2.67;;;16.20;99.90;;;;;;5040218;28;20045;-80
2022/07/30 02:04:26;;;;;;;2.35;1.75;;;16.10;99.90;;;;;;5021953;28;20120;-80
2022/07/30 02:07:01;;;;;;;2.25;2.10;;;16.00;99.90;;;;;;5041148;28;20266;-80
2022/07/30 02:09:34;;;;;;;2.35;2.10;;;16.00;99.90;;;;;;5022239;28;20116;-80
2022/07/30 02:14:55;;;;;;;3.50;1.80;;;15.90;99.90;;;;;;5022611;28;20049;-80
2022/07/30 02:17:25;;;;;;;8.15;2.10;;;15.80;99.90;;;;;;5040776;28;20044;-80
2022/07/30 02:19:54;;;;;;;3.10;2.00;;;15.80;99.90;;;;;;5039662;28;20060;-80
2022/07/30 02:22:21;;;;;;;3.85;2.10;;;15.80;99.90;;;;;;5040192;28;20171;-80
2022/07/30 02:24:48;;;;;;;2.45;1.98;;;15.80;99.90;;;;;;5040266;28;20055;-80
2022/07/30 02:27:21;;;;;;;2.75;2.35;;;15.70;99.90;;;;;;5040287;28;20041;-80
2022/07/30 02:29:49;;;;;;;3.67;2.15;;;15.70;99.90;;;;;;5040439;28;20045;-80
2022/07/30 02:32:19;;;;;;;3.45;2.78;;;15.60;99.90;;;;;;5039968;28;20044;-80
2022/07/30 02:34:56;;;;;;;2.05;1.60;;;15.60;99.90;;;;;;5039216;28;20052;-80
2022/07/30 02:37:23;;;;;;;2.75;2.05;;;15.60;99.90;;;;;;5039629;28;20037;-80
2022/07/30 02:39:50;;;;;;;1.98;1.77;;;15.60;99.90;;;;;;5040100;28;20052;-80
2022/07/30 02:42:18;;;;;;;1.90;1.80;;;15.60;99.90;;;;;;5039513;28;20093;-80
2022/07/30 02:44:45;;;;;;;2.53;2.33;;;15.60;99.90;;;;;;5039189;28;20454;-80
2022/07/30 02:47:12;;;;;;;3.88;2.67;;;15.60;99.90;;;;;;5039987;28;20037;-80
2022/07/30 02:49:40;;;;;;;3.80;2.35;;;15.60;99.90;;;;;;5039065;28;20063;-80
2022/07/30 02:52:11;;;;;;;2.42;2.22;;;15.60;99.90;;;;;;5039863;28;20068;-80
2022/07/30 02:54:39;;;;;;;4.10;3.15;;;15.60;99.90;;;;;;5040482;28;20335;-80
2022/07/30 02:57:06;;;;;;;8.18;3.53;;;15.60;99.90;;;;;;5022396;28;20045;-79
2022/07/30 02:59:34;;;;;;;2.85;2.20;;;15.60;99.90;;;;;;5039739;28;20040;-80
2022/07/30 03:02:02;;;;;;;3.67;2.50;;;15.60;99.90;;;;;;5039029;28;20045;-80
2022/07/30 03:04:30;;;;;;;3.58;3.10;;;15.60;99.90;;;;;;5020029;28;20041;-80
2022/07/30 03:06:57;;;;;;;3.55;2.75;;;15.60;99.90;;;;;;5039603;28;20129;-80
2022/07/30 03:09:23;;;;;;;3.17;2.53;;;15.60;99.90;;;;;;5039678;28;20473;-80
2022/07/30 03:11:51;;;;;;;3.00;2.70;;;15.50;99.90;;;;;;5039499;28;20060;-80
2022/07/30 03:14:17;;;;;;;2.85;2.55;;;15.40;99.90;;;;;;5039584;28;20088;-80
2022/07/30 03:16:50;;;;;;;3.30;2.47;;;15.40;99.90;;;;;;5038800;28;20127;-79
2022/07/30 03:19:19;;;;;;;6.40;2.88;;;15.40;99.90;;;;;;5020465;28;20100;-80
2022/07/30 03:21:45;;;;;;;4.05;3.25;;;15.30;99.90;;;;;;5019756;28;20487;-80
2022/07/30 03:24:12;;;;;;;7.90;3.45;;;15.30;99.90;;;;;;5038904;28;20094;-80
2022/07/30 03:26:39;;;;;;;3.08;2.47;;;15.30;99.90;;;;;;5021974;28;20033;-80
2022/07/30 03:29:07;;;;;;;4.15;3.30;;;15.20;99.90;;;;;;5039560;28;20099;-79
2022/07/30 03:31:34;;;;;;;2.42;2.10;;;15.20;99.90;;;;;;5021195;28;20095;-79
2022/07/30 03:34:01;;;;;;;3.70;2.25;;;15.30;99.90;;;;;;5037961;28;20094;-80
2022/07/30 03:36:27;;;;;;;2.78;1.95;;;15.30;99.90;;;;;;5020815;28;20153;-80
2022/07/30 03:38:53;;;;;;;2.53;1.80;;;15.30;99.90;;;;;;5038545;28;20616;-79
2022/07/30 03:41:21;;;;;;;2.40;2.15;;;15.30;99.90;;;;;;5039069;28;20603;-80
2022/07/30 03:43:47;;;;;;;2.42;1.83;;;15.30;99.90;;;;;;5039495;28;20137;-80
2022/07/30 03:46:14;;;;;;;4.07;2.38;;;15.30;99.90;;;;;;5020868;28;20967;-79
2022/07/30 03:48:41;;;;;;;4.15;2.08;;;15.30;99.90;;;;;;5037927;28;20091;-79
2022/07/30 03:51:10;;;;;;;3.50;3.13;;;15.20;99.90;;;;;;5039144;28;20047;-80
2022/07/30 03:53:36;;;;;;;3.25;2.60;;;15.20;99.90;;;;;;5021434;28;20041;-80
2022/07/30 03:56:02;;;;;;;3.67;2.15;;;15.20;99.90;;;;;;5038723;28;20052;-79
2022/07/30 03:58:29;;;;;;;3.72;2.28;;;15.20;99.90;;;;;;5038297;28;20095;-79
2022/07/30 04:00:55;;;;;;;3.30;2.65;;;15.20;99.90;;;;;;5020327;28;20495;-80
2022/07/30 04:03:25;;;;;;;2.35;2.15;;;15.30;99.90;;;;;;5019732;28;20069;-80
2022/07/30 04:05:51;;;;;;;3.45;2.13;;;15.30;99.90;;;;;;5038282;28;20440;-80
2022/07/30 04:08:17;;;;;;;3.13;2.42;;;15.30;99.90;;;;;;5038778;28;20052;-79
2022/07/30 04:10:42;;;;;;;3.08;2.30;;;15.30;99.90;;;;;;5038651;28;20045;-80
2022/07/30 04:13:08;;;;;;;2.22;2.03;;;15.30;99.90;;;;;;5038240;28;20077;-80
2022/07/30 04:15:42;;;;;;;2.90;2.45;;;15.40;99.90;;;;;;5020389;28;20407;-79
2022/07/30 04:18:12;;;;;;;3.00;2.58;;;15.30;99.90;;;;;;5037495;28;20130;-80
2022/07/30 04:20:43;;;;;;;3.45;3.03;;;15.40;99.90;;;;;;5038119;28;20069;-80
2022/07/30 04:23:10;;;;;;;2.80;2.60;;;15.30;99.90;;;;;;5020371;28;20465;-79
2022/07/30 04:25:37;;;;;;;4.75;2.85;;;15.30;99.90;;;;;;5037756;28;20079;-80
2022/07/30 04:28:04;;;;;;;8.93;3.45;;;15.40;99.90;;;;;;5038304;28;20053;-79
2022/07/30 04:30:32;;;;;;;4.15;2.63;;;15.40;99.90;;;;;;5038362;28;20033;-80
2022/07/30 04:32:57;;;;;;;3.80;1.90;;;15.40;99.90;;;;;;5037363;28;20048;-80
2022/07/30 04:35:28;;;;;;;3.20;2.95;;;15.40;99.90;;;;;;5042142;28;20033;-79
2022/07/30 04:37:54;;;;;;;5.40;2.67;;;15.40;99.90;;;;;;5042134;28;20037;-80
2022/07/30 04:40:19;;;;;;;2.17;1.83;;;15.30;99.90;;;;;;5041588;28;20398;-80
2022/07/30 04:42:45;;;;;;;2.28;1.80;;;15.30;99.90;;;;;;5041664;28;20045;-79
2022/07/30 04:45:10;;;;;;;5.07;2.00;;;15.30;99.90;;;;;;5024866;28;20062;-79
2022/07/30 04:47:36;;;;;;;1.70;1.60;;;15.40;99.90;;;;;;5023692;28;20452;-80
2022/07/30 04:50:05;;;;;;;1.65;1.52;;;15.40;99.90;;;;;;5040343;28;20040;-79
2022/07/30 04:52:31;;;;;;;12.82;1.85;;;15.40;99.90;;;;;;5041827;28;20056;-80
2022/07/30 04:55:03;;;;;;;2.20;1.40;;;15.40;99.90;;;;;;5041588;28;20037;-79
2022/07/30 04:57:30;;;;;;;1.13;1.10;;;15.40;99.90;;;;;;5042257;28;20128;-80
2022/07/30 04:59:56;;;;;;;2.08;1.60;;;15.40;99.90;;;;;;5041602;28;20192;-79
2022/07/30 05:02:26;;;;;;;2.38;1.67;;;15.40;99.90;;;;;;5041778;28;20033;-79
2022/07/30 05:04:52;;;;;;;2.63;2.17;;;15.40;99.90;;;;;;5040823;28;20119;-79
2022/07/30 05:07:20;;;;;;;2.35;1.83;;;15.40;99.90;;;;;;5023878;28;20479;-79
2022/07/30 05:09:47;;;;;;;5.43;2.65;;;15.50;99.90;;;;;;5041671;28;20052;-79
2022/07/30 05:12:12;;;;;;;2.75;1.98;;;15.60;99.90;;;;;;5041477;28;20051;-79
2022/07/30 05:14:38;;;;;;;5.18;3.42;;;15.70;99.90;;;;;;5041421;28;20045;-79
2022/07/30 05:17:04;;;;;;;3.70;2.10;;;15.70;99.90;;;;;;5041649;28;20044;-79
2022/07/30 05:19:30;;;;;;;3.15;2.53;;;15.80;99.90;;;;;;5040272;28;20462;-79
2022/07/30 05:21:55;;;;;;;4.10;3.40;;;15.90;99.90;;;;;;5040889;28;20037;-79
2022/07/30 05:24:21;;;;;;;4.05;2.53;;;16.00;99.90;;;;;;5041394;28;20553;-79
2022/07/30 05:26:47;;;;;;;4.72;3.17;;;16.10;99.90;;;;;;5040917;28;20107;-79
2022/07/30 05:29:13;;;;;;;5.25;2.45;;;16.10;99.90;;;;;;5023796;28;20048;-79
2022/07/30 05:31:38;;;;;;;4.68;3.72;;;16.20;99.90;;;;;;5041238;28;20025;-79
2022/07/30 05:34:04;;;;;;;3.00;2.20;;;16.30;99.90;;;;;;5039977;28;20044;-79
2022/07/30 05:36:30;;;;;;;5.28;3.40;;;16.40;99.90;;;;;;5041127;28;20507;-79
2022/07/30 05:38:56;;;;;;;4.85;3.65;;;16.40;99.90;;;;;;5023128;28;20040;-80
2022/07/30 05:41:21;;;;;;;5.80;3.35;;;16.50;99.90;;;;;;5040612;28;20045;-79
2022/07/30 05:43:47;;;;;;;5.38;3.80;;;16.60;99.90;;;;;;5040779;28;20102;-79
2022/07/30 05:46:12;;;;;;;10.95;4.43;;;16.60;99.90;;;;;;5022248;28;20044;-79
2022/07/30 05:48:38;;;;;;;23.13;3.90;;;16.70;99.90;;;;;;5039672;28;20039;-79
2022/07/30 05:51:04;;;;;;;6.00;3.28;;;16.70;99.90;;;;;;5040182;28;20052;-79
2022/07/30 05:53:30;;;;;;;4.43;3.70;;;16.80;99.90;;;;;;5040213;28;20127;-80
2022/07/30 05:55:56;;;;;;;7.93;4.68;;;16.80;99.90;;;;;;5040817;28;20341;-79
2022/07/30 05:58:22;;;;;;;5.47;2.78;;;16.90;99.90;;;;;;5022443;28;20045;-79
2022/07/30 06:00:48;;;;;;;6.82;4.32;;;16.90;99.90;;;;;;5040437;28;20443;-79
2022/07/30 06:03:14;;;;;;;6.78;3.10;;;17.00;99.90;;;;;;5040223;28;20068;-79
2022/07/30 06:05:40;;;;;;;3.92;3.55;;;17.00;99.90;;;;;;5039433;28;20480;-79
2022/07/30 06:08:05;;;;;;;4.53;3.58;;;17.10;99.90;;;;;;5040861;28;20064;-79
2022/07/30 06:10:31;;;;;;;4.97;3.97;;;17.10;99.90;;;;;;5040122;28;20116;-80
2022/07/30 06:12:58;;;;;;;9.75;3.38;;;17.20;99.90;;;;;;5039924;28;20384;-79
2022/07/30 06:15:23;;;;;;;6.43;4.57;;;17.20;99.90;;;;;;5040577;28;20391;-80
2022/07/30 06:17:49;;;;;;;10.18;3.80;;;17.20;99.90;;;;;;5039113;28;20045;-80
2022/07/30 06:20:17;;;;;;;6.85;4.82;;;17.30;99.90;;;;;;5040529;28;20620;-79
2022/07/30 06:22:43;;;;;;;7.45;4.38;;;17.30;99.90;;;;;;5039924;28;20032;-79
2022/07/30 06:25:09;;;;;;;5.20;3.70;;;17.30;99.90;;;;;;5040024;28;20125;-80
2022/07/30 06:27:35;;;;;;;4.47;3.65;;;17.30;99.90;;;;;;5039964;28;20045;-80
2022/07/30 06:30:03;;;;;;;6.25;4.30;;;17.40;99.90;;;;;;5039523;28;20377;-80
2022/07/30 06:32:29;;;;;;;8.30;5.28;;;17.40;99.90;;;;;;5039140;28;20242;-80
2022/07/30 06:34:55;;;;;;;5.38;4.10;;;17.40;99.90;;;;;;5039622;28;20601;-80
2022/07/30 06:37:20;;;;;;;5.55;4.60;;;17.50;99.90;;;;;;5040006;28;20032;-79
2022/07/30 06:39:46;;;;;;;5.22;4.22;;;17.50;99.90;;;;;;5040208;28;20044;-79
2022/07/30 06:42:12;;;;;;;11.60;4.18;;;17.50;99.90;;;;;;5039357;28;20155;-80
2022/07/30 06:44:37;;;;;;;9.13;4.25;;;17.50;99.90;;;;;;5022098;28;20511;-80
2022/07/30 06:47:03;;;;;;;17.15;5.93;;;17.60;99.90;;;;;;5039125;28;20090;-80
2022/07/30 06:49:32;;;;;;;4.38;3.50;;;17.60;99.90;;;;;;5038559;28;20470;-79
2022/07/30 06:51:58;;;;;;;5.82;3.45;;;17.70;99.90;;;;;;5039687;28;20041;-79
2022/07/30 06:54:24;;;;;;;5.80;4.35;;;17.80;99.90;;;;;;5039374;28;20037;-79
2022/07/30 06:56:49;;;;;;;4.85;3.70;;;17.90;99.90;;;;;;5039398;28;20400;-79
2022/07/30 06:59:15;;;;;;;5.05;3.60;;;17.90;99.90;;;;;;5021747;28;20312;-80
2022/07/30 07:01:41;;;;;;;3.85;2.83;;;17.90;99.90;;;;;;5021794;28;20045;-80
2022/07/30 07:04:06;;;;;;;4.85;3.40;;;17.90;99.90;;;;;;5020214;28;20483;-80
2022/07/30 07:06:32;;;;;;;4.20;2.97;;;17.90;99.90;;;;;;5039088;28;20613;-79
2022/07/30 07:08:58;;;;;;;7.53;4.05;;;17.90;99.90;;;;;;5039431;28;20120;-79
2022/07/30 07:11:23;;;;;;;4.50;3.00;;;17.90;99.90;;;;;;5038659;28;20132;-79
2022/07/30 07:13:49;;;;;;;4.05;2.88;;;17.90;99.90;;;;;;5021861;28;20511;-80
2022/07/30 07:16:15;;;;;;;4.38;3.97;;;17.90;99.90;;;;;;5038798;28;20497;-79
2022/07/30 07:18:40;;;;;;;4.22;3.33;;;18.00;99.90;;;;;;5019959;28;20350;-79
2022/07/30 07:21:07;;;;;;;6.45;3.10;;;18.10;99.90;;;;;;5039002;28;20055;-80
2022/07/30 07:23:33;;;;;;;3.38;3.08;;;18.10;99.90;;;;;;5038595;28;20305;-79
2022/07/30 07:25:59;;;;;;;3.95;3.10;;;18.10;99.90;;;;;;5038551;28;20647;-80
2022/07/30 07:28:24;;;;;;;6.35;3.83;;;18.10;99.90;;;;;;5038450;28;20539;-81
2022/07/30 07:30:50;;;;;;;6.45;3.38;;;18.20;99.90;;;;;;5038723;28;20130;-81
2022/07/30 07:33:16;;;;;;;5.97;3.30;;;18.20;99.90;;;;;;5020105;28;20048;-81
2022/07/30 07:35:41;;;;;;;4.07;3.42;;;18.30;99.90;;;;;;5038251;28;20427;-81
2022/07/30 07:38:07;;;;;;;6.32;2.90;;;18.30;99.90;;;;;;5038740;28;20040;-81
2022/07/30 07:40:32;;;;;;;3.40;3.10;;;18.30;99.90;;;;;;5020343;28;20538;-81
2022/07/30 07:42:58;;;;;;;3.17;2.72;;;18.30;99.90;;;;;;5038429;28;20045;-81
2022/07/30 07:45:23;;;;;;;4.15;2.90;;;18.30;99.90;;;;;;5021054;28;20037;-81
2022/07/30 07:47:49;;;;;;;3.85;2.45;;;18.30;99.90;;;;;;5019491;28;20107;-81
2022/07/30 07:50:17;;;;;;;6.07;4.05;;;18.30;99.90;;;;;;5038395;28;20056;-81
2022/07/30 07:52:43;;;;;;;6.18;3.08;;;18.40;99.90;;;;;;5020355;28;20037;-81
2022/07/30 07:55:08;;;;;;;4.93;3.03;;;18.40;99.90;;;;;;5038108;28;20044;-81
2022/07/30 07:57:44;;;;;;;4.22;2.85;;;18.50;99.90;;;;;;5020946;28;20589;-81
2022/07/30 08:00:16;;;;;;;4.57;2.45;;;18.50;99.90;;;;;;5037996;28;20123;-81
2022/07/30 08:02:42;;;;;;;4.72;2.88;;;18.60;99.90;;;;;;5019488;28;20037;-81
2022/07/30 08:05:11;;;;;;;3.33;2.30;;;18.60;99.90;;;;;;5038638;28;20174;-82
2022/07/30 08:07:37;;;;;;;4.18;2.88;;;18.50;99.90;;;;;;5037027;28;20037;-82
2022/07/30 08:10:03;;;;;;;3.05;2.75;;;18.50;99.90;;;;;;5038208;28;20037;-81
2022/07/30 08:12:30;;;;;;;2.58;2.28;;;18.50;99.90;;;;;;5037768;28;20053;-81
2022/07/30 08:14:55;;;;;;;3.38;1.90;;;18.60;99.90;;;;;;5037645;28;20565;-82
2022/07/30 08:17:21;;;;;;;3.58;2.45;;;18.60;99.90;;;;;;5037984;28;20288;-81
2022/07/30 08:19:47;;;;;;;3.22;1.83;;;18.60;99.90;;;;;;5037912;28;20510;-81
2022/07/30 08:22:12;;;;;;;4.35;1.95;;;18.60;99.90;;;;;;5019771;28;20048;-81
2022/07/30 08:24:38;;;;;;;4.65;3.15;;;18.70;99.90;;;;;;5020096;28;20053;-80
2022/07/30 08:27:04;;;;;;;11.25;3.50;;;18.70;99.90;;;;;;5020081;28;20060;-81
2022/07/30 08:29:32;;;;;;;4.10;2.42;;;18.80;99.90;;;;;;5019957;28;20195;-80
2022/07/30 08:31:57;;;;;;;3.55;2.67;;;18.70;99.90;;;;;;5020245;28;20049;-81
2022/07/30 08:34:23;;;;;;;3.25;2.58;;;18.80;99.90;;;;;;5019863;28;20487;-81
2022/07/30 08:36:48;;;;;;;3.40;2.70;;;18.80;99.90;;;;;;5037301;28;20272;-81
2022/07/30 08:39:14;;;;;;;3.75;2.38;;;18.90;99.90;;;;;;5037914;28;20052;-81
2022/07/30 08:41:40;;;;;;;2.97;2.00;;;18.90;99.90;;;;;;5020165;28;20037;-81
2022/07/30 08:44:10;;;;;;;5.10;2.50;;;19.00;99.90;;;;;;5019389;28;20133;-81
2022/07/30 08:46:40;;;;;;;3.40;2.25;;;19.00;99.90;;;;;;5038348;28;20154;-80
2022/07/30 08:49:06;;;;;;;3.42;2.70;;;19.00;99.90;;;;;;5036555;28;20045;-81
2022/07/30 08:51:33;;;;;;;4.07;2.35;;;19.10;99.90;;;;;;5038212;28;20052;-81
2022/07/30 08:54:00;;;;;;;3.22;2.53;;;19.10;99.90;;;;;;5037692;28;20183;-81
2022/07/30 08:56:26;;;;;;;2.60;2.40;;;19.00;99.90;;;;;;5038101;28;20045;-80
2022/07/30 08:58:52;;;;;;;4.18;3.42;;;19.00;99.90;;;;;;5037589;28;20479;-80
2022/07/30 09:01:18;;;;;;;2.47;2.28;;;19.00;99.90;;;;;;5019752;28;20106;-81
2022/07/30 09:03:44;;;;;;;3.00;2.47;;;19.10;99.90;;;;;;5036510;28;20056;-81
2022/07/30 09:06:10;;;;;;;3.90;2.88;;;19.10;99.90;;;;;;5037282;28;20033;-81
2022/07/30 09:08:35;;;;;;;3.28;2.05;;;19.20;99.90;;;;;;5038479;28;20048;-81
2022/07/30 09:11:01;;;;;;;11.38;2.78;;;19.30;99.90;;;;;;5036629;28;20152;-81
2022/07/30 09:13:27;;;;;;;2.88;2.33;;;19.30;99.90;;;;;;5038245;28;20510;-81
2022/07/30 09:15:53;;;;;;;4.40;2.33;;;19.40;99.90;;;;;;5019894;28;20041;-80
2022/07/30 09:18:35;;;;;;;5.75;2.47;;;19.40;99.90;;;;;;5036534;28;20033;-80
2022/07/30 09:21:16;;;;;;;4.43;2.47;;;19.40;99.90;;;;;;5039758;28;20435;-80
2022/07/30 09:24:01;;;;;;;2.65;2.25;;;19.50;99.90;;;;;;5040225;28;20052;-80
2022/07/30 09:26:28;;;;;;;3.38;2.67;;;19.50;99.90;;;;;;5042120;28;20326;-81
2022/07/30 09:28:54;;;;;;;6.82;2.60;;;19.50;99.90;;;;;;5040707;28;20245;-81
2022/07/30 09:31:22;;;;;;;4.53;3.00;;;19.60;99.90;;;;;;5041455;28;20336;-81
2022/07/30 09:33:48;;;;;;;2.25;1.90;;;19.60;99.90;;;;;;5039460;28;20341;-81
2022/07/30 09:36:15;;;;;;;4.07;2.42;;;19.60;99.90;;;;;;5040765;28;20047;-82
2022/07/30 09:38:50;;;;;;;2.47;2.22;;;19.60;99.90;;;;;;5040652;28;20385;-81
2022/07/30 09:41:38;;;;;;;8.05;2.53;;;19.60;99.90;;;;;;5041020;28;20044;-82
2022/07/30 09:44:05;;;;;;;2.85;2.25;;;19.70;99.90;;;;;;5022581;28;20048;-81
2022/07/30 09:46:50;;;;;;;4.47;3.05;;;19.60;99.90;;;;;;5040272;28;20045;-81
2022/07/30 09:49:36;;;;;;;3.38;2.53;;;19.70;99.90;;;;;;5040131;28;20091;-80
2022/07/30 09:52:01;;;;;;;7.70;2.28;;;19.80;99.90;;;;;;5040203;28;20075;-80
2022/07/30 09:54:47;;;;;;;4.55;3.78;;;19.80;99.90;;;;;;5040683;28;20049;-80
2022/07/30 09:57:12;;;;;;;3.67;2.22;;;19.80;99.90;;;;;;5023121;28;20052;-80
2022/07/30 09:59:38;;;;;;;3.13;2.58;;;19.80;99.90;;;;;;5040279;28;20045;-80
2022/07/30 10:02:04;;;;;;;2.90;2.55;;;19.80;99.90;;;;;;5039203;28;20047;-80
2022/07/30 10:04:31;;;;;;;2.40;2.00;;;19.80;99.90;;;;;;5023127;28;20072;-80
2022/07/30 10:06:59;;;;;;;3.08;2.10;;;19.90;99.90;;;;;;5022207;28;20304;-80
2022/07/30 10:09:29;;;;;;;4.95;2.90;;;20.00;99.90;;;;;;5039819;28;20484;-80
2022/07/30 10:11:57;;;;;;;4.53;2.80;;;20.00;99.90;;;;;;5039661;28;20056;-80
2022/07/30 10:14:27;;;;;;;4.05;2.55;;;20.00;99.90;;;;;;5039866;28;20406;-80
2022/07/30 10:16:53;;;;;;;2.55;2.20;;;19.90;99.90;;;;;;5020565;28;20041;-81
2022/07/30 10:19:19;;;;;;;3.17;2.65;;;20.00;99.90;;;;;;5039651;28;20083;-81
2022/07/30 10:21:45;;;;;;;3.58;1.92;;;20.00;99.90;;;;;;5039845;28;20151;-80
2022/07/30 10:24:12;;;;;;;2.33;2.13;;;20.00;99.90;;;;;;5039601;28;20075;-81
2022/07/30 10:26:38;;;;;;;3.22;2.33;;;20.10;99.90;;;;;;5039445;28;20045;-81
2022/07/30 10:29:04;;;;;;;2.25;2.05;;;20.00;99.90;;;;;;5039945;28;20059;-81
2022/07/30 10:31:30;;;;;;;2.55;2.35;;;20.10;99.90;;;;;;5021546;28;20094;-81
2022/07/30 10:33:56;;;;;;;2.80;1.80;;;20.10;99.90;;;;;;5038433;28;20048;-82
2022/07/30 10:36:24;;;;;;;2.67;2.10;;;20.10;99.90;;;;;;5039798;28;20581;-81
2022/07/30 10:38:50;;;;;;;2.92;2.50;;;20.20;99.90;;;;;;5021414;28;20048;-81
2022/07/30 10:41:25;;;;;;;3.90;2.38;;;20.20;99.90;;;;;;5039283;28;20045;-81
2022/07/30 10:44:06;;;;;;;6.70;2.88;;;20.20;99.90;;;;;;5039067;28;20037;-82
2022/07/30 10:47:05;;;;;;;5.00;2.50;;;20.20;99.90;;;;;;5039558;28;20127;-81
2022/07/30 10:49:30;;;;;;;1.92;1.67;;;20.10;99.90;;;;;;5022740;28;20076;-81
2022/07/30 10:51:56;;;;;;;10.15;2.10;;;20.20;99.90;;;;;;5038902;28;20141;-81
2022/07/30 10:54:44;;;;;;;5.85;2.58;;;20.10;99.90;;;;;;5038863;28;20041;-82
2022/07/30 10:57:18;;;;;;;1.90;1.80;;;20.20;99.90;;;;;;5039448;28;20048;-81
2022/07/30 10:59:57;;;;;;;2.15;1.63;;;20.20;99.90;;;;;;5020952;28;20045;-81
2022/07/30 11:02:25;;;;;;;3.60;1.58;;;20.30;99.90;;;;;;5020517;28;20114;-82
2022/07/30 11:05:16;;;;;;;2.00;1.90;;;20.30;99.90;;;;;;5038961;28;20372;-81
2022/07/30 11:07:42;;;;;;;2.43;1.63;;;20.30;99.90;;;;;;5038462;28;20049;-81
2022/07/30 11:10:34;;;;;;;2.42;1.50;;;20.20;99.90;;;;;;5038942;28;20607;-81
2022/07/30 11:12:59;;;;;;;3.10;1.77;;;20.20;99.90;;;;;;5021189;28;20137;-81
2022/07/30 11:15:53;;;;;;;2.08;1.50;;;20.30;99.90;;;;;;5039069;28;20136;-81
2022/07/30 11:18:19;;;;;;;1.85;1.50;;;20.30;99.90;;;;;;5020107;28;20053;-81
2022/07/30 11:21:15;;;;;;;2.03;1.38;;;20.30;99.90;;;;;;5020935;28;20033;-81
2022/07/30 11:23:41;;;;;;;2.13;1.92;;;20.30;99.90;;;;;;5021088;28;20261;-81
2022/07/30 11:26:07;;;;;;;3.65;2.00;;;20.30;99.90;;;;;;5038612;28;20033;-82
2022/07/30 11:28:45;;;;;;;2.30;1.98;;;20.30;99.90;;;;;;5020916;28;20041;-80
2022/07/30 11:31:27;;;;;;;2.88;1.38;;;20.30;99.90;;;;;;5038602;28;20072;-82
2022/07/30 11:34:19;;;;;;;1.65;1.55;;;20.30;99.90;;;;;;5037287;28;20091;-82
2022/07/30 11:37:07;;;;;;;7.30;2.13;;;20.30;99.90;;;;;;5020569;28;20045;-81
2022/07/30 11:39:54;;;;;;;1.85;1.10;;;20.30;99.90;;;;;;5038999;28;20280;-81
2022/07/30 11:42:29;;;;;;;4.43;2.10;;;20.30;99.90;;;;;;5037743;28;20520;-81
2022/07/30 11:45:14;;;;;;;5.28;1.55;;;20.30;99.90;;;;;;5038398;28;20345;-82
2022/07/30 11:47:47;;;;;;;6.15;1.55;;;20.30;99.90;;;;;;5019721;28;20053;-82
2022/07/30 11:50:20;;;;;;;1.27;1.10;;;20.40;99.90;;;;;;5038645;28;20033;-81
2022/07/30 11:52:58;;;;;;;2.63;1.33;;;20.50;99.90;;;;;;5037908;28;20053;-81
2022/07/30 11:55:32;;;;;;;1.92;1.45;;;20.50;99.90;;;;;;5038155;28;20051;-82
2022/07/30 11:58:00;;;;;;;2.17;1.38;;;20.50;99.90;;;;;;5038166;28;20033;-81
2022/07/30 12:00:38;;;;;;;3.45;1.90;;;20.50;99.90;;;;;;5038101;28;20491;-81
2022/07/30 12:03:12;;;;;;;1.23;1.05;;;20.60;99.90;;;;;;5037302;28;20037;-81
2022/07/30 12:05:38;;;;;;;1.02;0.90;;;20.60;99.90;;;;;;5038256;28;20070;-80
2022/07/30 12:08:04;;;;;;;1.30;1.20;;;20.60;99.90;;;;;;5038181;28;20037;-82
2022/07/30 12:10:38;;;;;;;3.47;1.48;;;20.60;99.90;;;;;;5038060;28;20048;-81
2022/07/30 12:13:14;;;;;;;1.42;1.23;;;20.60;99.90;;;;;;5018700;28;20085;-81
2022/07/30 12:15:47;;;;;;;1.85;1.30;;;20.60;99.90;;;;;;5017810;28;20068;-81
2022/07/30 12:18:21;;;;;;;1.40;1.25;;;20.60;99.90;;;;;;5017180;28;20042;-81
2022/07/30 12:20:56;;;;;;;0.98;0.90;;;20.60;99.90;;;;;;5000175;28;20412;-82
2022/07/30 12:23:22;;;;;;;1.27;1.17;;;20.70;99.90;;;;;;5017761;28;20045;-81
2022/07/30 12:25:48;;;;;;;1.15;1.08;;;20.70;99.90;;;;;;5000009;28;20045;-82
2022/07/30 12:28:20;;;;;;;1.48;1.38;;;20.70;99.90;;;;;;5017808;28;20091;-82
2022/07/30 12:30:45;;;;;;;;;;;20.70;99.90;;;;;;5018424;28;20041;-82
2022/07/30 12:33:12;;;;;;;1.75;1.00;;;20.70;99.90;;;;;;5016436;28;19966;-81
2022/07/30 12:35:44;;;;;;;1.95;1.38;;;20.70;99.90;;;;;;5018192;28;20123;-81
2022/07/30 12:38:10;;;;;;;3.03;1.40;;;20.70;99.90;;;;;;5000359;28;20103;-81
2022/07/30 12:41:04;;;;;;;1.60;1.15;;;20.70;99.90;;;;;;5018314;28;20488;-81
2022/07/30 12:43:47;;;;;;;2.58;1.70;;;20.70;99.90;;;;;;5000057;28;20145;-81
2022/07/30 12:46:15;;;;;;;2.63;1.27;;;20.80;99.90;;;;;;5017811;28;20168;-81
2022/07/30 12:48:48;;;;;;;1.20;1.02;;;20.80;99.90;;;;;;5017197;28;20487;-81
2022/07/30 12:51:14;;;;;;;1.27;1.13;;;20.80;99.90;;;;;;5000269;28;20073;-82
2022/07/30 12:53:40;;;;;;;1.17;0.93;;;20.80;99.90;;;;;;5000954;28;20538;-81
2022/07/30 12:56:21;;;;;;;2.92;1.05;;;20.80;99.90;;;;;;5021563;28;20121;-80
2022/07/30 12:58:47;;;;;;;1.27;1.07;;;20.80;99.90;;;;;;5004233;28;20045;-81